sensor_id;sensor_type;location;lat;lon;timestamp;P1;durP1;ratioP1;P2;durP2;ratioP2
77206;SDS011;66190;50.708;7.906;2024-03-23T00:54:37;28.90;;;11.45;;
77206;SDS011;66190;50.708;7.906;2024-03-23T00:57:02;30.77;;;11.90;;
77206;SDS011;66190;50.708;7.906;2024-03-23T00:59:28;29.97;;;11.37;;
77206;SDS011;66190;50.708;7.906;2024-03-23T01:01:54;32.63;;;11.77;;
77206;SDS011;66190;50.708;7.906;2024-03-23T01:04:20;34.20;;;12.13;;
77206;SDS011;66190;50.708;7.906;2024-03-23T01:06:45;33.47;;;12.77;;
77206;SDS011;66190;50.708;7.906;2024-03-23T01:09:11;33.47;;;12.63;;
77206;SDS011;66190;50.708;7.906;2024-03-23T01:11:36;32.23;;;11.87;;
77206;SDS011;66190;50.708;7.906;2024-03-23T01:14:02;31.45;;;11.65;;
77206;SDS011;66190;50.708;7.906;2024-03-23T01:16:28;35.53;;;14.27;;
77206;SDS011;66190;50.708;7.906;2024-03-23T01:18:53;38.20;;;15.97;;
77206;SDS011;66190;50.708;7.906;2024-03-23T01:21:18;38.60;;;14.25;;
77206;SDS011;66190;50.708;7.906;2024-03-23T01:23:44;33.87;;;13.90;;
77206;SDS011;66190;50.708;7.906;2024-03-23T01:26:10;36.10;;;13.60;;
77206;SDS011;66190;50.708;7.906;2024-03-23T01:28:35;31.83;;;13.17;;
77206;SDS011;66190;50.708;7.906;2024-03-23T01:31:00;34.88;;;13.10;;
77206;SDS011;66190;50.708;7.906;2024-03-23T01:33:26;29.57;;;11.43;;
77206;SDS011;66190;50.708;7.906;2024-03-23T01:35:51;26.80;;;10.40;;
77206;SDS011;66190;50.708;7.906;2024-03-23T01:38:17;20.77;;;7.78;;
77206;SDS011;66190;50.708;7.906;2024-03-23T01:40:42;11.85;;;4.68;;
77206;SDS011;66190;50.708;7.906;2024-03-23T01:43:07;9.50;;;3.27;;
77206;SDS011;66190;50.708;7.906;2024-03-23T01:45:33;7.37;;;2.37;;
77206;SDS011;66190;50.708;7.906;2024-03-23T01:47:59;6.95;;;2.00;;
77206;SDS011;66190;50.708;7.906;2024-03-23T01:50:25;6.10;;;1.43;;
77206;SDS011;66190;50.708;7.906;2024-03-23T01:52:51;5.20;;;1.40;;
77206;SDS011;66190;50.708;7.906;2024-03-23T01:55:17;4.80;;;1.15;;
77206;SDS011;66190;50.708;7.906;2024-03-23T01:57:43;4.80;;;1.10;;
77206;SDS011;66190;50.708;7.906;2024-03-23T02:00:08;4.95;;;1.10;;
77206;SDS011;66190;50.708;7.906;2024-03-23T02:02:40;5.40;;;1.25;;
77206;SDS011;66190;50.708;7.906;2024-03-23T02:05:14;4.40;;;1.10;;
77206;SDS011;66190;50.708;7.906;2024-03-23T02:07:40;5.97;;;1.20;;
77206;SDS011;66190;50.708;7.906;2024-03-23T02:10:06;4.60;;;1.20;;
77206;SDS011;66190;50.708;7.906;2024-03-23T02:12:32;5.97;;;1.60;;
77206;SDS011;66190;50.708;7.906;2024-03-23T02:14:58;5.80;;;1.00;;
77206;SDS011;66190;50.708;7.906;2024-03-23T02:17:24;4.50;;;1.00;;
77206;SDS011;66190;50.708;7.906;2024-03-23T02:19:50;4.43;;;1.00;;
77206;SDS011;66190;50.708;7.906;2024-03-23T02:22:15;4.25;;;1.00;;
77206;SDS011;66190;50.708;7.906;2024-03-23T02:24:41;6.77;;;1.20;;
77206;SDS011;66190;50.708;7.906;2024-03-23T02:27:07;4.93;;;1.10;;
77206;SDS011;66190;50.708;7.906;2024-03-23T02:29:32;4.30;;;1.00;;
77206;SDS011;66190;50.708;7.906;2024-03-23T02:31:58;3.63;;;0.77;;
77206;SDS011;66190;50.708;7.906;2024-03-23T02:34:24;3.80;;;1.10;;
77206;SDS011;66190;50.708;7.906;2024-03-23T02:36:49;3.63;;;0.80;;
77206;SDS011;66190;50.708;7.906;2024-03-23T02:39:15;4.40;;;1.00;;
77206;SDS011;66190;50.708;7.906;2024-03-23T02:41:40;3.67;;;0.68;;
77206;SDS011;66190;50.708;7.906;2024-03-23T02:44:05;4.43;;;0.70;;
77206;SDS011;66190;50.708;7.906;2024-03-23T02:46:31;4.73;;;1.20;;
77206;SDS011;66190;50.708;7.906;2024-03-23T02:48:57;4.72;;;0.80;;
77206;SDS011;66190;50.708;7.906;2024-03-23T02:51:22;4.07;;;0.80;;
77206;SDS011;66190;50.708;7.906;2024-03-23T02:53:47;4.53;;;1.17;;
77206;SDS011;66190;50.708;7.906;2024-03-23T02:56:13;5.10;;;1.10;;
77206;SDS011;66190;50.708;7.906;2024-03-23T02:58:41;5.55;;;1.40;;
77206;SDS011;66190;50.708;7.906;2024-03-23T03:01:06;5.50;;;1.23;;
77206;SDS011;66190;50.708;7.906;2024-03-23T03:03:32;5.75;;;1.45;;
77206;SDS011;66190;50.708;7.906;2024-03-23T03:05:57;5.87;;;1.33;;
77206;SDS011;66190;50.708;7.906;2024-03-23T03:08:23;5.40;;;1.20;;
77206;SDS011;66190;50.708;7.906;2024-03-23T03:10:48;4.80;;;1.43;;
77206;SDS011;66190;50.708;7.906;2024-03-23T03:13:13;5.67;;;1.33;;
77206;SDS011;66190;50.708;7.906;2024-03-23T03:15:45;5.30;;;1.48;;
77206;SDS011;66190;50.708;7.906;2024-03-23T03:18:10;6.03;;;1.33;;
77206;SDS011;66190;50.708;7.906;2024-03-23T03:20:39;6.15;;;1.75;;
77206;SDS011;66190;50.708;7.906;2024-03-23T03:23:05;6.97;;;1.40;;
77206;SDS011;66190;50.708;7.906;2024-03-23T03:25:30;5.88;;;1.70;;
77206;SDS011;66190;50.708;7.906;2024-03-23T03:27:56;6.03;;;1.70;;
77206;SDS011;66190;50.708;7.906;2024-03-23T03:30:21;6.83;;;1.50;;
77206;SDS011;66190;50.708;7.906;2024-03-23T03:32:47;6.80;;;1.83;;
77206;SDS011;66190;50.708;7.906;2024-03-23T03:35:12;5.55;;;1.50;;
77206;SDS011;66190;50.708;7.906;2024-03-23T03:37:38;6.50;;;1.53;;
77206;SDS011;66190;50.708;7.906;2024-03-23T03:40:03;7.17;;;1.40;;
77206;SDS011;66190;50.708;7.906;2024-03-23T03:42:29;6.10;;;1.70;;
77206;SDS011;66190;50.708;7.906;2024-03-23T03:44:54;6.50;;;1.60;;
77206;SDS011;66190;50.708;7.906;2024-03-23T03:47:19;6.67;;;1.50;;
77206;SDS011;66190;50.708;7.906;2024-03-23T03:49:45;5.80;;;1.20;;
77206;SDS011;66190;50.708;7.906;2024-03-23T03:52:10;5.73;;;1.30;;
77206;SDS011;66190;50.708;7.906;2024-03-23T03:54:36;4.80;;;0.80;;
77206;SDS011;66190;50.708;7.906;2024-03-23T03:57:01;4.82;;;0.90;;
77206;SDS011;66190;50.708;7.906;2024-03-23T03:59:27;4.77;;;0.70;;
77206;SDS011;66190;50.708;7.906;2024-03-23T04:01:52;4.50;;;1.00;;
77206;SDS011;66190;50.708;7.906;2024-03-23T04:04:17;4.40;;;1.00;;
77206;SDS011;66190;50.708;7.906;2024-03-23T04:06:43;5.15;;;1.00;;
77206;SDS011;66190;50.708;7.906;2024-03-23T04:09:09;3.63;;;0.70;;
77206;SDS011;66190;50.708;7.906;2024-03-23T04:11:35;2.70;;;0.57;;
77206;SDS011;66190;50.708;7.906;2024-03-23T04:14:00;4.73;;;0.70;;
77206;SDS011;66190;50.708;7.906;2024-03-23T04:16:27;3.85;;;0.80;;
77206;SDS011;66190;50.708;7.906;2024-03-23T04:18:53;3.80;;;0.63;;
77206;SDS011;66190;50.708;7.906;2024-03-23T04:21:22;3.63;;;0.70;;
77206;SDS011;66190;50.708;7.906;2024-03-23T04:23:48;2.97;;;0.50;;
77206;SDS011;66190;50.708;7.906;2024-03-23T04:26:13;2.70;;;0.60;;
77206;SDS011;66190;50.708;7.906;2024-03-23T04:28:39;2.95;;;0.60;;
77206;SDS011;66190;50.708;7.906;2024-03-23T04:31:04;3.00;;;0.50;;
77206;SDS011;66190;50.708;7.906;2024-03-23T04:33:30;3.03;;;0.60;;
77206;SDS011;66190;50.708;7.906;2024-03-23T04:35:56;5.27;;;0.70;;
77206;SDS011;66190;50.708;7.906;2024-03-23T04:38:22;2.47;;;0.55;;
77206;SDS011;66190;50.708;7.906;2024-03-23T04:40:54;3.03;;;0.60;;
77206;SDS011;66190;50.708;7.906;2024-03-23T04:43:23;3.78;;;0.85;;
77206;SDS011;66190;50.708;7.906;2024-03-23T04:45:49;3.60;;;0.80;;
77206;SDS011;66190;50.708;7.906;2024-03-23T04:48:15;4.00;;;0.63;;
77206;SDS011;66190;50.708;7.906;2024-03-23T04:50:40;3.07;;;0.60;;
77206;SDS011;66190;50.708;7.906;2024-03-23T04:53:06;3.80;;;0.80;;
77206;SDS011;66190;50.708;7.906;2024-03-23T04:55:32;5.88;;;1.13;;
77206;SDS011;66190;50.708;7.906;2024-03-23T04:57:57;3.93;;;0.80;;
77206;SDS011;66190;50.708;7.906;2024-03-23T05:00:22;4.40;;;0.77;;
77206;SDS011;66190;50.708;7.906;2024-03-23T05:02:48;4.28;;;0.70;;
77206;SDS011;66190;50.708;7.906;2024-03-23T05:05:14;5.27;;;0.70;;
77206;SDS011;66190;50.708;7.906;2024-03-23T05:07:39;2.90;;;0.53;;
77206;SDS011;66190;50.708;7.906;2024-03-23T05:10:06;4.43;;;0.65;;
77206;SDS011;66190;50.708;7.906;2024-03-23T05:12:35;4.95;;;0.73;;
77206;SDS011;66190;50.708;7.906;2024-03-23T05:15:00;3.43;;;0.80;;
77206;SDS011;66190;50.708;7.906;2024-03-23T05:17:26;6.17;;;1.00;;
77206;SDS011;66190;50.708;7.906;2024-03-23T05:19:51;4.05;;;0.82;;
77206;SDS011;66190;50.708;7.906;2024-03-23T05:22:17;5.28;;;1.10;;
77206;SDS011;66190;50.708;7.906;2024-03-23T05:24:44;5.03;;;0.80;;
77206;SDS011;66190;50.708;7.906;2024-03-23T05:27:10;5.97;;;0.90;;
77206;SDS011;66190;50.708;7.906;2024-03-23T05:29:35;7.10;;;1.10;;
77206;SDS011;66190;50.708;7.906;2024-03-23T05:32:00;5.43;;;1.03;;
77206;SDS011;66190;50.708;7.906;2024-03-23T05:34:26;6.10;;;1.10;;
77206;SDS011;66190;50.708;7.906;2024-03-23T05:36:51;6.40;;;1.10;;
77206;SDS011;66190;50.708;7.906;2024-03-23T05:39:17;5.40;;;0.90;;
77206;SDS011;66190;50.708;7.906;2024-03-23T05:41:42;9.07;;;1.10;;
77206;SDS011;66190;50.708;7.906;2024-03-23T05:44:07;5.20;;;1.20;;
77206;SDS011;66190;50.708;7.906;2024-03-23T05:46:33;3.63;;;0.75;;
77206;SDS011;66190;50.708;7.906;2024-03-23T05:49:00;6.80;;;1.13;;
77206;SDS011;66190;50.708;7.906;2024-03-23T05:51:26;5.60;;;1.23;;
77206;SDS011;66190;50.708;7.906;2024-03-23T05:53:52;4.37;;;0.97;;
77206;SDS011;66190;50.708;7.906;2024-03-23T05:56:19;4.60;;;1.10;;
77206;SDS011;66190;50.708;7.906;2024-03-23T05:58:44;4.28;;;0.95;;
77206;SDS011;66190;50.708;7.906;2024-03-23T06:01:11;7.30;;;1.63;;
77206;SDS011;66190;50.708;7.906;2024-03-23T06:03:37;6.67;;;1.40;;
77206;SDS011;66190;50.708;7.906;2024-03-23T06:06:03;7.00;;;1.55;;
77206;SDS011;66190;50.708;7.906;2024-03-23T06:08:29;7.13;;;1.60;;
77206;SDS011;66190;50.708;7.906;2024-03-23T06:10:55;7.47;;;1.80;;
77206;SDS011;66190;50.708;7.906;2024-03-23T06:13:20;5.10;;;1.00;;
77206;SDS011;66190;50.708;7.906;2024-03-23T06:15:49;7.13;;;1.88;;
77206;SDS011;66190;50.708;7.906;2024-03-23T06:18:15;8.70;;;1.83;;
77206;SDS011;66190;50.708;7.906;2024-03-23T06:20:40;7.13;;;1.43;;
77206;SDS011;66190;50.708;7.906;2024-03-23T06:23:06;7.20;;;1.80;;
77206;SDS011;66190;50.708;7.906;2024-03-23T06:25:31;5.90;;;1.50;;
77206;SDS011;66190;50.708;7.906;2024-03-23T06:27:56;6.37;;;2.23;;
77206;SDS011;66190;50.708;7.906;2024-03-23T06:30:23;7.85;;;2.15;;
77206;SDS011;66190;50.708;7.906;2024-03-23T06:32:48;6.67;;;2.10;;
77206;SDS011;66190;50.708;7.906;2024-03-23T06:35:14;7.63;;;1.97;;
77206;SDS011;66190;50.708;7.906;2024-03-23T06:37:39;9.17;;;2.13;;
77206;SDS011;66190;50.708;7.906;2024-03-23T06:40:06;9.40;;;2.50;;
77206;SDS011;66190;50.708;7.906;2024-03-23T06:42:34;8.73;;;1.77;;
77206;SDS011;66190;50.708;7.906;2024-03-23T06:45:00;7.05;;;2.05;;
77206;SDS011;66190;50.708;7.906;2024-03-23T06:47:25;8.80;;;2.60;;
77206;SDS011;66190;50.708;7.906;2024-03-23T06:49:51;10.83;;;3.70;;
77206;SDS011;66190;50.708;7.906;2024-03-23T06:52:17;21.67;;;7.73;;
77206;SDS011;66190;50.708;7.906;2024-03-23T06:54:42;12.48;;;4.03;;
77206;SDS011;66190;50.708;7.906;2024-03-23T06:57:09;15.13;;;3.13;;
77206;SDS011;66190;50.708;7.906;2024-03-23T06:59:34;13.68;;;3.92;;
77206;SDS011;66190;50.708;7.906;2024-03-23T07:02:00;15.07;;;2.83;;
77206;SDS011;66190;50.708;7.906;2024-03-23T07:04:25;11.90;;;3.27;;
77206;SDS011;66190;50.708;7.906;2024-03-23T07:06:51;12.97;;;3.33;;
77206;SDS011;66190;50.708;7.906;2024-03-23T07:09:17;10.27;;;2.97;;
77206;SDS011;66190;50.708;7.906;2024-03-23T07:11:42;10.20;;;3.47;;
77206;SDS011;66190;50.708;7.906;2024-03-23T07:14:07;15.93;;;4.83;;
77206;SDS011;66190;50.708;7.906;2024-03-23T07:16:33;14.00;;;2.95;;
77206;SDS011;66190;50.708;7.906;2024-03-23T07:18:59;20.60;;;7.00;;
77206;SDS011;66190;50.708;7.906;2024-03-23T07:21:24;19.00;;;5.47;;
77206;SDS011;66190;50.708;7.906;2024-03-23T07:23:50;16.83;;;4.30;;
77206;SDS011;66190;50.708;7.906;2024-03-23T07:26:15;15.00;;;3.80;;
77206;SDS011;66190;50.708;7.906;2024-03-23T07:28:40;13.05;;;4.90;;
77206;SDS011;66190;50.708;7.906;2024-03-23T07:31:11;15.57;;;4.23;;
77206;SDS011;66190;50.708;7.906;2024-03-23T07:33:41;8.25;;;2.67;;
77206;SDS011;66190;50.708;7.906;2024-03-23T07:36:08;10.55;;;2.92;;
77206;SDS011;66190;50.708;7.906;2024-03-23T07:38:33;14.10;;;3.20;;
77206;SDS011;66190;50.708;7.906;2024-03-23T07:41:05;10.93;;;2.50;;
77206;SDS011;66190;50.708;7.906;2024-03-23T07:43:32;12.80;;;3.17;;
77206;SDS011;66190;50.708;7.906;2024-03-23T07:45:57;10.80;;;3.33;;
77206;SDS011;66190;50.708;7.906;2024-03-23T07:48:23;9.70;;;3.00;;
77206;SDS011;66190;50.708;7.906;2024-03-23T07:53:28;10.60;;;2.70;;
77206;SDS011;66190;50.708;7.906;2024-03-23T07:55:57;15.75;;;3.38;;
77206;SDS011;66190;50.708;7.906;2024-03-23T07:58:24;11.77;;;3.53;;
77206;SDS011;66190;50.708;7.906;2024-03-23T08:00:50;11.38;;;3.10;;
77206;SDS011;66190;50.708;7.906;2024-03-23T08:03:16;10.57;;;3.40;;
77206;SDS011;66190;50.708;7.906;2024-03-23T08:05:41;11.98;;;2.97;;
77206;SDS011;66190;50.708;7.906;2024-03-23T08:08:07;14.25;;;3.72;;
77206;SDS011;66190;50.708;7.906;2024-03-23T08:10:32;14.47;;;3.03;;
77206;SDS011;66190;50.708;7.906;2024-03-23T08:12:58;10.07;;;2.43;;
77206;SDS011;66190;50.708;7.906;2024-03-23T08:15:23;11.30;;;2.47;;
77206;SDS011;66190;50.708;7.906;2024-03-23T08:17:49;10.93;;;3.22;;
77206;SDS011;66190;50.708;7.906;2024-03-23T08:20:15;10.02;;;2.63;;
77206;SDS011;66190;50.708;7.906;2024-03-23T08:22:40;8.57;;;2.20;;
77206;SDS011;66190;50.708;7.906;2024-03-23T08:25:06;12.47;;;2.70;;
77206;SDS011;66190;50.708;7.906;2024-03-23T08:27:31;11.30;;;2.57;;
77206;SDS011;66190;50.708;7.906;2024-03-23T08:29:58;11.63;;;3.15;;
77206;SDS011;66190;50.708;7.906;2024-03-23T08:32:23;10.33;;;2.67;;
77206;SDS011;66190;50.708;7.906;2024-03-23T08:34:48;11.70;;;3.15;;
77206;SDS011;66190;50.708;7.906;2024-03-23T08:37:14;14.07;;;4.50;;
77206;SDS011;66190;50.708;7.906;2024-03-23T08:39:39;11.83;;;3.43;;
77206;SDS011;66190;50.708;7.906;2024-03-23T08:42:04;9.23;;;3.73;;
77206;SDS011;66190;50.708;7.906;2024-03-23T08:44:30;7.73;;;2.60;;
77206;SDS011;66190;50.708;7.906;2024-03-23T08:46:56;9.43;;;2.90;;
77206;SDS011;66190;50.708;7.906;2024-03-23T08:49:21;11.30;;;3.10;;
77206;SDS011;66190;50.708;7.906;2024-03-23T08:51:46;13.27;;;2.40;;
77206;SDS011;66190;50.708;7.906;2024-03-23T08:54:12;7.30;;;3.13;;
77206;SDS011;66190;50.708;7.906;2024-03-23T08:56:37;10.40;;;3.07;;
77206;SDS011;66190;50.708;7.906;2024-03-23T08:59:03;10.80;;;2.70;;
77206;SDS011;66190;50.708;7.906;2024-03-23T09:01:28;9.73;;;3.17;;
77206;SDS011;66190;50.708;7.906;2024-03-23T09:03:53;12.48;;;3.33;;
77206;SDS011;66190;50.708;7.906;2024-03-23T09:06:19;10.53;;;3.33;;
77206;SDS011;66190;50.708;7.906;2024-03-23T09:08:45;12.03;;;3.43;;
77206;SDS011;66190;50.708;7.906;2024-03-23T09:11:11;11.75;;;2.85;;
77206;SDS011;66190;50.708;7.906;2024-03-23T09:13:37;9.80;;;2.63;;
77206;SDS011;66190;50.708;7.906;2024-03-23T09:16:04;8.93;;;2.50;;
77206;SDS011;66190;50.708;7.906;2024-03-23T09:18:33;7.10;;;2.72;;
77206;SDS011;66190;50.708;7.906;2024-03-23T09:21:03;13.05;;;3.03;;
77206;SDS011;66190;50.708;7.906;2024-03-23T09:23:29;13.30;;;3.42;;
77206;SDS011;66190;50.708;7.906;2024-03-23T09:25:55;9.33;;;2.53;;
77206;SDS011;66190;50.708;7.906;2024-03-23T09:28:20;10.37;;;2.30;;
77206;SDS011;66190;50.708;7.906;2024-03-23T09:30:46;10.27;;;2.60;;
77206;SDS011;66190;50.708;7.906;2024-03-23T09:33:11;9.82;;;2.60;;
77206;SDS011;66190;50.708;7.906;2024-03-23T09:35:38;9.30;;;2.87;;
77206;SDS011;66190;50.708;7.906;2024-03-23T09:38:04;9.18;;;2.30;;
77206;SDS011;66190;50.708;7.906;2024-03-23T09:40:29;10.80;;;2.78;;
77206;SDS011;66190;50.708;7.906;2024-03-23T09:42:55;11.68;;;2.40;;
77206;SDS011;66190;50.708;7.906;2024-03-23T09:45:21;11.00;;;2.70;;
77206;SDS011;66190;50.708;7.906;2024-03-23T09:47:47;11.07;;;2.53;;
77206;SDS011;66190;50.708;7.906;2024-03-23T09:50:14;7.47;;;2.05;;
77206;SDS011;66190;50.708;7.906;2024-03-23T09:52:40;11.40;;;2.47;;
77206;SDS011;66190;50.708;7.906;2024-03-23T09:55:07;8.05;;;1.17;;
77206;SDS011;66190;50.708;7.906;2024-03-23T09:57:33;8.57;;;1.95;;
77206;SDS011;66190;50.708;7.906;2024-03-23T09:59:59;13.97;;;3.00;;
77206;SDS011;66190;50.708;7.906;2024-03-23T10:02:24;11.80;;;1.83;;
77206;SDS011;66190;50.708;7.906;2024-03-23T10:04:51;13.38;;;2.83;;
77206;SDS011;66190;50.708;7.906;2024-03-23T10:07:19;9.20;;;1.90;;
77206;SDS011;66190;50.708;7.906;2024-03-23T10:09:45;7.57;;;1.85;;
77206;SDS011;66190;50.708;7.906;2024-03-23T10:12:16;6.68;;;1.67;;
77206;SDS011;66190;50.708;7.906;2024-03-23T10:14:44;8.30;;;1.95;;
77206;SDS011;66190;50.708;7.906;2024-03-23T10:17:17;8.48;;;1.50;;
77206;SDS011;66190;50.708;7.906;2024-03-23T10:19:50;8.45;;;1.95;;
77206;SDS011;66190;50.708;7.906;2024-03-23T10:22:17;6.10;;;1.27;;
77206;SDS011;66190;50.708;7.906;2024-03-23T10:24:44;9.93;;;1.75;;
77206;SDS011;66190;50.708;7.906;2024-03-23T10:27:09;5.47;;;1.50;;
77206;SDS011;66190;50.708;7.906;2024-03-23T10:29:43;7.88;;;1.67;;
77206;SDS011;66190;50.708;7.906;2024-03-23T10:32:16;6.40;;;2.08;;
77206;SDS011;66190;50.708;7.906;2024-03-23T10:34:42;8.07;;;2.00;;
77206;SDS011;66190;50.708;7.906;2024-03-23T10:37:08;9.50;;;2.60;;
77206;SDS011;66190;50.708;7.906;2024-03-23T10:39:34;13.30;;;4.82;;
77206;SDS011;66190;50.708;7.906;2024-03-23T10:42:09;13.45;;;4.43;;
77206;SDS011;66190;50.708;7.906;2024-03-23T10:44:35;9.63;;;3.73;;
77206;SDS011;66190;50.708;7.906;2024-03-23T10:47:02;12.65;;;4.70;;
77206;SDS011;66190;50.708;7.906;2024-03-23T10:49:29;12.88;;;4.07;;
77206;SDS011;66190;50.708;7.906;2024-03-23T10:52:02;14.07;;;4.25;;
77206;SDS011;66190;50.708;7.906;2024-03-23T10:54:32;9.65;;;3.00;;
77206;SDS011;66190;50.708;7.906;2024-03-23T10:59:42;11.52;;;3.10;;
77206;SDS011;66190;50.708;7.906;2024-03-23T11:02:09;8.07;;;1.98;;
77206;SDS011;66190;50.708;7.906;2024-03-23T11:04:44;10.68;;;2.22;;
77206;SDS011;66190;50.708;7.906;2024-03-23T11:09:50;7.68;;;2.50;;
77206;SDS011;66190;50.708;7.906;2024-03-23T11:14:48;10.30;;;3.55;;
77206;SDS011;66190;50.708;7.906;2024-03-23T11:17:18;9.67;;;2.70;;
77206;SDS011;66190;50.708;7.906;2024-03-23T11:20:06;8.30;;;1.63;;
77206;SDS011;66190;50.708;7.906;2024-03-23T11:22:37;6.40;;;1.48;;
77206;SDS011;66190;50.708;7.906;2024-03-23T11:25:15;5.38;;;0.90;;
77206;SDS011;66190;50.708;7.906;2024-03-23T11:27:43;4.88;;;0.95;;
77206;SDS011;66190;50.708;7.906;2024-03-23T11:30:14;5.83;;;1.17;;
77206;SDS011;66190;50.708;7.906;2024-03-23T11:32:50;5.50;;;1.13;;
77206;SDS011;66190;50.708;7.906;2024-03-23T11:35:34;5.53;;;1.00;;
77206;SDS011;66190;50.708;7.906;2024-03-23T11:40:48;4.40;;;1.00;;
77206;SDS011;66190;50.708;7.906;2024-03-23T11:43:15;3.30;;;0.60;;
77206;SDS011;66190;50.708;7.906;2024-03-23T11:45:48;3.90;;;0.75;;
77206;SDS011;66190;50.708;7.906;2024-03-23T11:48:19;3.00;;;0.70;;
77206;SDS011;66190;50.708;7.906;2024-03-23T11:50:46;3.83;;;0.52;;
77206;SDS011;66190;50.708;7.906;2024-03-23T11:58:13;5.90;;;1.13;;
77206;SDS011;66190;50.708;7.906;2024-03-23T12:00:40;3.25;;;0.50;;
77206;SDS011;66190;50.708;7.906;2024-03-23T12:03:06;9.88;;;3.40;;
77206;SDS011;66190;50.708;7.906;2024-03-23T12:05:32;18.63;;;5.90;;
77206;SDS011;66190;50.708;7.906;2024-03-23T12:08:17;3.42;;;0.88;;
77206;SDS011;66190;50.708;7.906;2024-03-23T12:13:31;3.45;;;0.73;;
77206;SDS011;66190;50.708;7.906;2024-03-23T12:16:08;3.87;;;0.73;;
77206;SDS011;66190;50.708;7.906;2024-03-23T12:18:46;6.95;;;0.90;;
77206;SDS011;66190;50.708;7.906;2024-03-23T12:21:12;4.47;;;0.90;;
77206;SDS011;66190;50.708;7.906;2024-03-23T12:23:41;4.32;;;0.98;;
77206;SDS011;66190;50.708;7.906;2024-03-23T12:26:09;5.40;;;1.40;;
77206;SDS011;66190;50.708;7.906;2024-03-23T12:28:35;5.87;;;1.10;;
77206;SDS011;66190;50.708;7.906;2024-03-23T12:31:00;6.33;;;1.50;;
77206;SDS011;66190;50.708;7.906;2024-03-23T12:33:25;7.30;;;1.27;;
77206;SDS011;66190;50.708;7.906;2024-03-23T12:35:51;5.70;;;1.20;;
77206;SDS011;66190;50.708;7.906;2024-03-23T12:38:17;4.33;;;1.20;;
77206;SDS011;66190;50.708;7.906;2024-03-23T12:40:51;5.97;;;1.50;;
77206;SDS011;66190;50.708;7.906;2024-03-23T12:43:17;6.23;;;1.50;;
77206;SDS011;66190;50.708;7.906;2024-03-23T12:45:46;7.97;;;1.50;;
77206;SDS011;66190;50.708;7.906;2024-03-23T12:48:12;5.90;;;1.13;;
77206;SDS011;66190;50.708;7.906;2024-03-23T12:50:37;5.77;;;1.30;;
77206;SDS011;66190;50.708;7.906;2024-03-23T12:53:03;6.20;;;1.27;;
77206;SDS011;66190;50.708;7.906;2024-03-23T12:55:28;5.50;;;0.90;;
77206;SDS011;66190;50.708;7.906;2024-03-23T12:57:54;9.27;;;2.20;;
77206;SDS011;66190;50.708;7.906;2024-03-23T13:00:19;5.80;;;1.60;;
77206;SDS011;66190;50.708;7.906;2024-03-23T13:02:45;6.05;;;1.40;;
77206;SDS011;66190;50.708;7.906;2024-03-23T13:05:10;5.93;;;1.57;;
77206;SDS011;66190;50.708;7.906;2024-03-23T13:07:36;8.93;;;2.20;;
77206;SDS011;66190;50.708;7.906;2024-03-23T13:10:02;7.25;;;1.55;;
77206;SDS011;66190;50.708;7.906;2024-03-23T13:12:28;5.65;;;0.82;;
77206;SDS011;66190;50.708;7.906;2024-03-23T13:14:54;4.90;;;1.20;;
77206;SDS011;66190;50.708;7.906;2024-03-23T13:17:19;4.87;;;1.27;;
77206;SDS011;66190;50.708;7.906;2024-03-23T13:19:45;7.07;;;1.92;;
77206;SDS011;66190;50.708;7.906;2024-03-23T13:22:10;17.83;;;4.55;;
77206;SDS011;66190;50.708;7.906;2024-03-23T13:24:36;9.43;;;3.33;;
77206;SDS011;66190;50.708;7.906;2024-03-23T13:27:03;20.30;;;6.15;;
77206;SDS011;66190;50.708;7.906;2024-03-23T13:29:33;5.95;;;1.50;;
77206;SDS011;66190;50.708;7.906;2024-03-23T13:32:08;5.38;;;1.10;;
77206;SDS011;66190;50.708;7.906;2024-03-23T13:34:34;7.40;;;1.83;;
77206;SDS011;66190;50.708;7.906;2024-03-23T13:37:00;7.03;;;1.67;;
77206;SDS011;66190;50.708;7.906;2024-03-23T13:39:26;4.53;;;1.15;;
77206;SDS011;66190;50.708;7.906;2024-03-23T13:41:52;5.50;;;1.95;;
77206;SDS011;66190;50.708;7.906;2024-03-23T13:44:18;6.73;;;2.03;;
77206;SDS011;66190;50.708;7.906;2024-03-23T13:46:44;4.40;;;0.88;;
77206;SDS011;66190;50.708;7.906;2024-03-23T13:49:25;6.80;;;1.80;;
77206;SDS011;66190;50.708;7.906;2024-03-23T13:51:52;6.32;;;2.22;;
77206;SDS011;66190;50.708;7.906;2024-03-23T13:54:19;6.53;;;1.40;;
77206;SDS011;66190;50.708;7.906;2024-03-23T13:56:44;6.13;;;1.73;;
77206;SDS011;66190;50.708;7.906;2024-03-23T13:59:10;6.53;;;1.97;;
77206;SDS011;66190;50.708;7.906;2024-03-23T14:01:35;10.45;;;3.05;;
77206;SDS011;66190;50.708;7.906;2024-03-23T14:04:00;5.95;;;2.42;;
77206;SDS011;66190;50.708;7.906;2024-03-23T14:06:26;6.30;;;1.10;;
77206;SDS011;66190;50.708;7.906;2024-03-23T14:08:51;5.70;;;1.30;;
77206;SDS011;66190;50.708;7.906;2024-03-23T14:11:18;6.63;;;1.90;;
77206;SDS011;66190;50.708;7.906;2024-03-23T14:13:44;9.25;;;2.05;;
77206;SDS011;66190;50.708;7.906;2024-03-23T14:16:09;7.87;;;1.80;;
77206;SDS011;66190;50.708;7.906;2024-03-23T14:18:35;6.77;;;1.83;;
77206;SDS011;66190;50.708;7.906;2024-03-23T14:21:00;8.00;;;1.50;;
77206;SDS011;66190;50.708;7.906;2024-03-23T14:23:30;4.97;;;1.17;;
77206;SDS011;66190;50.708;7.906;2024-03-23T14:25:59;6.18;;;1.25;;
77206;SDS011;66190;50.708;7.906;2024-03-23T14:28:24;6.80;;;1.73;;
77206;SDS011;66190;50.708;7.906;2024-03-23T14:30:55;4.32;;;1.23;;
77206;SDS011;66190;50.708;7.906;2024-03-23T14:33:21;4.68;;;1.23;;
77206;SDS011;66190;50.708;7.906;2024-03-23T14:35:53;7.23;;;2.27;;
77206;SDS011;66190;50.708;7.906;2024-03-23T14:38:20;5.57;;;1.60;;
77206;SDS011;66190;50.708;7.906;2024-03-23T14:40:46;5.00;;;1.60;;
77206;SDS011;66190;50.708;7.906;2024-03-23T14:43:11;3.58;;;0.98;;
77206;SDS011;66190;50.708;7.906;2024-03-23T14:45:45;5.07;;;1.20;;
77206;SDS011;66190;50.708;7.906;2024-03-23T14:48:32;9.10;;;1.60;;
77206;SDS011;66190;50.708;7.906;2024-03-23T14:50:59;4.35;;;0.93;;
77206;SDS011;66190;50.708;7.906;2024-03-23T14:53:25;4.78;;;1.30;;
77206;SDS011;66190;50.708;7.906;2024-03-23T14:55:54;5.32;;;1.50;;
77206;SDS011;66190;50.708;7.906;2024-03-23T14:58:19;4.70;;;1.20;;
77206;SDS011;66190;50.708;7.906;2024-03-23T15:00:45;6.50;;;1.33;;
77206;SDS011;66190;50.708;7.906;2024-03-23T15:03:10;4.47;;;1.00;;
77206;SDS011;66190;50.708;7.906;2024-03-23T15:05:36;6.30;;;1.50;;
77206;SDS011;66190;50.708;7.906;2024-03-23T15:08:02;4.80;;;1.60;;
77206;SDS011;66190;50.708;7.906;2024-03-23T15:10:28;5.70;;;2.03;;
77206;SDS011;66190;50.708;7.906;2024-03-23T15:12:54;5.72;;;1.50;;
77206;SDS011;66190;50.708;7.906;2024-03-23T15:15:20;5.82;;;1.75;;
77206;SDS011;66190;50.708;7.906;2024-03-23T15:17:45;6.53;;;2.33;;
77206;SDS011;66190;50.708;7.906;2024-03-23T15:20:11;6.50;;;1.33;;
77206;SDS011;66190;50.708;7.906;2024-03-23T15:22:37;5.10;;;1.70;;
77206;SDS011;66190;50.708;7.906;2024-03-23T15:25:02;7.63;;;2.50;;
77206;SDS011;66190;50.708;7.906;2024-03-23T15:27:28;7.45;;;2.58;;
77206;SDS011;66190;50.708;7.906;2024-03-23T15:29:55;6.83;;;2.20;;
77206;SDS011;66190;50.708;7.906;2024-03-23T15:32:22;8.68;;;3.42;;
77206;SDS011;66190;50.708;7.906;2024-03-23T15:34:47;5.13;;;1.63;;
77206;SDS011;66190;50.708;7.906;2024-03-23T15:37:13;5.73;;;2.00;;
77206;SDS011;66190;50.708;7.906;2024-03-23T15:39:39;5.40;;;1.48;;
77206;SDS011;66190;50.708;7.906;2024-03-23T15:42:06;6.55;;;1.42;;
77206;SDS011;66190;50.708;7.906;2024-03-23T15:44:32;6.10;;;1.37;;
77206;SDS011;66190;50.708;7.906;2024-03-23T15:46:57;6.95;;;1.55;;
77206;SDS011;66190;50.708;7.906;2024-03-23T15:49:22;5.70;;;1.63;;
77206;SDS011;66190;50.708;7.906;2024-03-23T15:51:48;3.60;;;0.90;;
77206;SDS011;66190;50.708;7.906;2024-03-23T15:54:13;5.13;;;1.20;;